Time;durP1;ratioP1;P1;durP2;ratioP2;P2;SDS_P1;SDS_P2;PMS_P1;PMS_P2;Temp;Humidity;BMP_temperature;BMP_pressure;BME280_temperature;BME280_humidity;BME280_pressure;Samples;Min_cycle;Max_cycle;Signal;HPM_P1;HPM_P2
2024/02/27 00:02:02;;;;;;;44.90;28.00;;;;;;;7.69;100.00;146367.47;5056593;28;20501;-71
2024/02/27 00:04:28;;;;;;;43.60;28.08;;;;;;;7.34;100.00;146259.53;5068390;28;20039;-70
2024/02/27 00:06:54;;;;;;;40.42;27.15;;;;;;;7.75;100.00;146341.22;5050392;28;20033;-70
2024/02/27 00:09:21;;;;;;;47.15;27.92;;;;;;;6.95;100.00;146186.47;5056179;28;20025;-70
2024/02/27 00:11:47;;;;;;;42.65;25.65;;;;;;;7.65;100.00;146333.28;5050112;28;20131;-70
2024/02/27 00:14:13;;;;;;;41.30;25.52;;;;;;;6.39;100.00;146049.97;5067153;28;20028;-70
2024/02/27 00:16:38;;;;;;;43.45;25.80;;;;;;;6.86;100.00;146148.97;5049135;28;20035;-75
2024/02/27 00:19:04;;;;;;;40.80;25.20;;;;;;;7.19;100.00;146227.75;5069456;28;20548;-71
2024/02/27 00:21:30;;;;;;;41.78;25.67;;;;;;;7.24;100.00;146201.59;5071465;28;20028;-69
2024/02/27 00:23:56;;;;;;;37.45;23.00;;;;;;;7.00;100.00;146155.25;5050102;28;20054;-70
2024/02/27 00:26:21;;;;;;;37.72;23.60;;;;;;;6.91;100.00;146130.53;5067730;28;20032;-70
2024/02/27 00:28:47;;;;;;;39.22;23.20;;;;;;;7.51;100.00;146255.25;5050551;28;20035;-69
2024/02/27 00:31:12;;;;;;;40.90;24.88;;;;;;;7.36;100.00;146195.28;5067490;28;20036;-70
2024/02/27 00:33:38;;;;;;;39.45;23.65;;;;;;;6.99;100.00;146152.78;5056187;28;20029;-70
2024/02/27 00:36:04;;;;;;;39.78;22.75;;;;;;;7.31;100.00;146257.28;5056973;28;20154;-70
2024/02/27 00:38:29;;;;;;;40.60;24.70;;;;;;;6.97;100.00;146205.53;5067620;28;20119;-70
2024/02/27 00:40:55;;;;;;;41.53;24.00;;;;;;;6.63;100.00;146132.06;5068301;28;20044;-70
2024/02/27 00:43:20;;;;;;;39.83;23.33;;;;;;;6.59;100.00;146091.53;5068031;28;20040;-70
2024/02/27 00:45:46;;;;;;;36.90;24.20;;;;;;;7.24;100.00;146156.75;5066499;28;20471;-70
2024/02/27 00:48:11;;;;;;;39.15;24.10;;;;;;;6.74;100.00;146169.38;5067159;28;20043;-72
2024/02/27 00:50:39;;;;;;;43.17;24.17;;;;;;;6.67;100.00;146177.75;5068504;28;20489;-70
2024/02/27 00:53:04;;;;;;;39.80;24.08;;;;;;;6.57;100.00;146154.38;5051457;28;20085;-70
2024/02/27 00:55:30;;;;;;;39.28;24.33;;;;;;;7.09;100.00;146305.56;5072164;28;20048;-71
2024/02/27 00:57:55;;;;;;;38.33;24.27;;;;;;;7.27;100.00;146331.97;5072455;28;20024;-70
2024/02/27 01:00:21;;;;;;;39.28;24.90;;;;;;;6.55;100.00;146162.22;5064168;28;20451;-70
2024/02/27 01:02:46;;;;;;;41.35;25.42;;;;;;;7.33;100.00;146324.91;5071595;28;20517;-70
2024/02/27 01:05:12;;;;;;;40.50;25.85;;;;;;;7.52;100.00;146361.50;5071288;28;20036;-70
2024/02/27 01:07:37;;;;;;;37.92;25.70;;;;;;;7.47;100.00;146346.59;5052949;28;20028;-70
2024/02/27 01:10:03;;;;;;;43.85;26.30;;;;;;;7.24;100.00;146306.63;5053609;28;20036;-70
2024/02/27 01:12:29;;;;;;;44.50;27.15;;;;;;;7.31;100.00;146313.66;5072368;28;20040;-69
2024/02/27 01:14:55;;;;;;;41.50;26.52;;;;;;;7.45;100.00;146314.78;5071634;28;20028;-70
2024/02/27 01:17:22;;;;;;;49.60;27.63;;;;;;;6.72;100.00;146181.03;5053265;28;20066;-70
2024/02/27 01:19:47;;;;;;;44.25;28.45;;;;;;;6.88;100.00;146121.94;5053827;28;20029;-73
2024/02/27 01:22:12;;;;;;;50.33;27.33;;;;;;;7.20;100.00;146298.03;5071281;28;20032;-70
2024/02/27 01:24:38;;;;;;;42.55;27.35;;;;;;;7.30;100.00;146293.22;5053764;28;20127;-69
2024/02/27 01:27:04;;;;;;;46.88;28.95;;;;;;;7.16;100.00;146261.31;5071885;28;20064;-70
2024/02/27 01:29:30;;;;;;;48.05;29.05;;;;;;;7.27;100.00;146293.56;5070142;28;20036;-71
2024/02/27 01:31:56;;;;;;;48.35;29.17;;;;;;;7.15;100.00;146224.22;5069325;28;20410;-69
2024/02/27 01:34:22;;;;;;;46.72;29.33;;;;;;;7.34;100.00;146278.72;5052956;28;20422;-69
2024/02/27 01:36:47;;;;;;;44.80;29.25;;;;;;;7.06;100.00;146230.25;5071975;28;20415;-69
2024/02/27 01:39:13;;;;;;;49.35;29.70;;;;;;;6.83;100.00;146158.28;5070867;28;20028;-69
2024/02/27 01:41:48;;;;;;;47.47;29.73;;;;;;;7.34;100.00;146296.66;5071166;28;20035;-69
2024/02/27 01:44:13;;;;;;;51.67;31.05;;;;;;;6.62;100.00;146138.50;5071058;28;20024;-69
2024/02/27 01:46:40;;;;;;;50.13;31.13;;;;;;;7.41;100.00;146274.19;5070425;28;20041;-70
2024/02/27 01:49:07;;;;;;;49.88;30.33;;;;;;;6.81;100.00;146136.63;5053189;28;20032;-70
2024/02/27 01:51:33;;;;;;;50.13;30.35;;;;;;;7.25;100.00;146268.13;5071221;28;20032;-70
2024/02/27 01:54:00;;;;;;;52.90;32.35;;;;;;;6.71;100.00;146109.50;5071233;28;20105;-69
2024/02/27 01:56:26;;;;;;;57.78;32.70;;;;;;;7.13;100.00;146237.22;5068600;28;20043;-69
2024/02/27 01:58:52;;;;;;;52.25;32.97;;;;;;;6.54;100.00;146098.34;5052776;28;20032;-69
2024/02/27 02:01:20;;;;;;;53.53;34.13;;;;;;;6.19;100.00;146045.47;5070291;28;20071;-70
2024/02/27 02:03:45;;;;;;;53.50;34.55;;;;;;;7.34;100.00;146292.84;5069741;28;20028;-72
2024/02/27 02:06:11;;;;;;;58.67;35.60;;;;;;;6.51;100.00;146131.91;5068582;28;20032;-68
2024/02/27 02:08:38;;;;;;;59.25;34.22;;;;;;;6.47;100.00;146132.31;5052336;28;20127;-68
2024/02/27 02:11:08;;;;;;;54.70;33.65;;;;;;;7.26;100.00;146288.50;5070263;28;20060;-69
2024/02/27 02:13:35;;;;;;;53.88;33.47;;;;;;;6.73;100.00;146191.22;5069165;28;20116;-69
2024/02/27 02:16:00;;;;;;;55.58;33.90;;;;;;;6.90;100.00;146212.56;5070665;28;20040;-69
2024/02/27 02:18:26;;;;;;;54.13;32.97;;;;;;;7.14;100.00;146241.03;5070844;28;20431;-69
2024/02/27 02:20:51;;;;;;;50.78;31.45;;;;;;;7.49;100.00;146284.88;5070254;28;20492;-68
2024/02/27 02:23:17;;;;;;;49.08;30.70;;;;;;;7.43;100.00;146281.66;5070755;28;20120;-69
2024/02/27 02:25:46;;;;;;;50.28;31.80;;;;;;;7.33;100.00;146222.41;5070821;28;20028;-69
2024/02/27 02:28:12;;;;;;;55.08;32.15;;;;;;;7.37;100.00;146138.84;5068977;28;20498;-70
2024/02/27 02:30:37;;;;;;;52.50;31.80;;;;;;;7.31;100.00;146125.28;5067816;28;20063;-70
2024/02/27 02:33:03;;;;;;;50.13;32.10;;;;;;;6.60;100.00;146047.91;5070552;28;20475;-71
2024/02/27 02:35:28;;;;;;;50.35;30.45;;;;;;;7.22;100.00;146206.94;5051938;28;20564;-69
2024/02/27 02:37:54;;;;;;;48.75;29.77;;;;;;;6.72;100.00;145937.94;5051596;28;20031;-70
2024/02/27 02:40:21;;;;;;;46.78;29.73;;;;;;;7.00;100.00;146175.75;5068792;28;20016;-70
2024/02/27 02:42:46;;;;;;;48.70;29.60;;;;;;;7.17;100.00;146224.00;5054701;28;20040;-70
2024/02/27 02:45:12;;;;;;;49.70;30.08;;;;;;;6.69;100.00;146103.34;5068493;28;20032;-70
2024/02/27 02:47:39;;;;;;;51.88;30.20;;;;;;;6.85;100.00;146124.81;5069773;28;20030;-71
2024/02/27 02:50:05;;;;;;;50.97;31.63;;;;;;;6.65;100.00;146064.03;5051920;28;21841;-70
2024/02/27 02:52:31;;;;;;;60.42;34.95;;;;;;;6.75;100.00;146134.72;5068425;28;20036;-69
2024/02/27 02:54:57;;;;;;;64.18;35.53;;;;;;;7.22;100.00;146195.38;5067448;28;20041;-69
2024/02/27 02:57:22;;;;;;;60.95;36.13;;;;;;;7.15;100.00;146225.56;5069266;28;20028;-70
2024/02/27 02:59:48;;;;;;;67.32;38.10;;;;;;;6.73;100.00;146099.06;5054480;28;20487;-70
2024/02/27 03:02:13;;;;;;;69.40;36.97;;;;;;;7.19;100.00;146222.63;5068922;28;20415;-69
2024/02/27 03:04:39;;;;;;;69.00;39.08;;;;;;;6.19;100.00;145963.66;5069500;28;20032;-70
2024/02/27 03:07:05;;;;;;;53.08;32.08;;;;;;;7.26;100.00;146220.59;5067898;28;20491;-70
2024/02/27 03:09:31;;;;;;;58.67;32.60;;;;;;;7.50;100.00;146211.81;5050922;28;20127;-70
2024/02/27 03:11:58;;;;;;;52.63;33.15;;;;;;;7.36;100.00;146241.41;5069791;28;20097;-70
2024/02/27 03:14:24;;;;;;;66.18;37.03;;;;;;;7.21;100.00;146191.69;5070068;28;20089;-70
2024/02/27 03:16:50;;;;;;;63.97;37.00;;;;;;;7.20;100.00;146202.00;5068140;28;20119;-69
2024/02/27 03:19:15;;;;;;;67.10;37.70;;;;;;;7.15;100.00;146207.66;5069097;28;20024;-70
2024/02/27 03:21:40;;;;;;;69.50;38.95;;;;;;;7.11;100.00;146141.47;5050863;28;20039;-75
2024/02/27 03:24:07;;;;;;;63.70;36.75;;;;;;;6.95;100.00;146192.94;5057051;28;20028;-70
2024/02/27 03:26:34;;;;;;;66.70;37.10;;;;;;;6.61;100.00;146153.97;5069262;28;20113;-70
2024/02/27 03:28:59;;;;;;;67.65;37.80;;;;;;;7.13;100.00;146284.69;5066841;28;20035;-70
2024/02/27 03:31:25;;;;;;;72.45;38.75;;;;;;;7.11;100.00;146297.69;5069373;28;20028;-70
2024/02/27 03:33:50;;;;;;;68.55;38.17;;;;;;;7.21;100.00;146178.88;5068839;28;20141;-70
2024/02/27 03:36:16;;;;;;;74.13;39.42;;;;;;;6.88;100.00;146214.09;5068637;28;20032;-72
2024/02/27 03:38:42;;;;;;;78.80;41.25;;;;;;;7.36;100.00;146302.88;5069050;28;20032;-69
2024/02/27 03:41:12;;;;;;;85.65;41.28;;;;;;;6.65;100.00;146135.69;5068380;28;20166;-69
2024/02/27 03:43:38;;;;;;;85.60;43.13;;;;;;;6.73;100.00;146147.69;5067901;28;20525;-70
2024/02/27 03:46:03;;;;;;;84.32;42.88;;;;;;;7.11;100.00;146241.34;5068986;28;20029;-70
2024/02/27 03:48:29;;;;;;;89.10;42.88;;;;;;;7.12;100.00;146251.47;5067692;28;20040;-69
2024/02/27 03:50:54;;;;;;;91.53;43.03;;;;;;;7.37;100.00;146231.06;5068781;28;20042;-70
2024/02/27 03:53:20;;;;;;;96.20;44.60;;;;;;;7.03;100.00;146194.72;5068479;28;20527;-70
2024/02/27 03:55:45;;;;;;;104.32;46.15;;;;;;;7.21;100.00;146310.69;5068161;28;20080;-70
2024/02/27 03:58:11;;;;;;;108.65;46.72;;;;;;;7.13;100.00;146269.31;5054185;28;20025;-70
2024/02/27 04:00:36;;;;;;;99.57;43.90;;;;;;;7.23;100.00;146341.25;5068735;28;20036;-70
2024/02/27 04:03:01;;;;;;;96.95;44.42;;;;;;;7.13;100.00;146329.41;5068057;28;20131;-70
2024/02/27 04:05:27;;;;;;;96.68;44.88;;;;;;;7.34;100.00;146388.88;5068536;28;20024;-70
2024/02/27 04:07:52;;;;;;;100.22;44.35;;;;;;;7.08;100.00;146359.41;5068098;28;20039;-71
2024/02/27 04:10:19;;;;;;;98.57;42.75;;;;;;;6.69;100.00;146265.81;5060977;28;20486;-70
2024/02/27 04:12:45;;;;;;;100.68;43.30;;;;;;;6.53;100.00;146240.50;5054233;28;20119;-70
2024/02/27 04:15:10;;;;;;;99.43;44.22;;;;;;;6.51;100.00;146236.81;5068635;28;20119;-70
2024/02/27 04:17:35;;;;;;;93.85;43.80;;;;;;;6.84;100.00;146286.13;5050132;28;20029;-72
2024/02/27 04:20:01;;;;;;;96.82;42.40;;;;;;;7.10;100.00;146386.06;5066913;28;20066;-71
2024/02/27 04:22:26;;;;;;;105.40;45.15;;;;;;;7.09;100.00;146405.44;5067229;28;20118;-69
2024/02/27 04:24:52;;;;;;;102.82;46.15;;;;;;;7.25;100.00;146424.38;5068230;28;20032;-69
2024/02/27 04:27:17;;;;;;;83.07;38.22;;;;;;;8.67;100.00;146453.72;5065631;28;20499;-68
2024/02/27 04:29:42;;;;;;;105.30;44.45;;;;;;;7.15;100.00;146349.72;5065936;28;20471;-69
2024/02/27 04:32:08;;;;;;;103.32;45.90;;;;;;;6.78;100.00;146222.72;5047723;28;20410;-70
2024/02/27 04:34:33;;;;;;;101.43;45.58;;;;;;;7.43;100.00;146427.72;5068338;28;20475;-69
2024/02/27 04:37:00;;;;;;;105.03;44.55;;;;;;;7.35;100.00;146424.63;5048562;28;20060;-70
2024/02/27 04:39:26;;;;;;;100.47;46.05;;;;;;;7.26;100.00;146370.47;5048409;28;20044;-69
2024/02/27 04:41:51;;;;;;;103.35;46.50;;;;;;;6.83;100.00;146237.63;5066982;28;20134;-69
2024/02/27 04:44:19;;;;;;;101.25;45.75;;;;;;;6.97;100.00;146201.63;5066190;28;20127;-71
2024/02/27 04:46:44;;;;;;;109.32;48.03;;;;;;;6.79;100.00;146266.16;5066267;28;20039;-70
2024/02/27 04:49:10;;;;;;;100.45;44.83;;;;;;;6.72;100.00;146283.41;5065994;28;20406;-70
2024/02/27 04:51:35;;;;;;;96.40;45.42;;;;;;;7.28;100.00;146393.34;5065202;28;20029;-69
2024/02/27 04:54:02;;;;;;;90.13;43.90;;;;;;;6.61;100.00;146221.81;5065634;28;20032;-77
2024/02/27 04:56:28;;;;;;;87.28;42.33;;;;;;;6.58;100.00;146218.22;5065765;28;20050;-70
2024/02/27 04:58:53;;;;;;;78.97;43.03;;;;;;;6.80;100.00;146221.22;5066491;28;20404;-69
2024/02/27 05:01:19;;;;;;;79.38;41.25;;;;;;;7.49;100.00;146338.69;5065613;28;20032;-69
2024/02/27 05:03:46;;;;;;;89.00;43.25;;;;;;;7.43;100.00;146338.03;5051572;28;20438;-69
2024/02/27 05:06:13;;;;;;;76.03;40.95;;;;;;;7.23;100.00;146323.31;5060432;28;20039;-69
2024/02/27 05:08:38;;;;;;;74.10;40.40;;;;;;;6.89;100.00;146251.03;5066482;28;20035;-70
2024/02/27 05:11:03;;;;;;;69.65;39.00;;;;;;;7.07;100.00;146281.38;5064436;28;20036;-70
2024/02/27 05:13:29;;;;;;;74.43;39.83;;;;;;;5.82;100.00;145954.41;5047319;28;20039;-70
2024/02/27 05:15:54;;;;;;;63.33;36.42;;;;;;;7.11;100.00;146291.19;5066581;28;20116;-71
2024/02/27 05:18:20;;;;;;;61.88;36.53;;;;;;;6.62;100.00;146157.75;5065976;28;20077;-72
2024/02/27 05:20:46;;;;;;;55.78;35.67;;;;;;;6.01;100.00;145998.63;5066483;28;20032;-71
2024/02/27 05:23:12;;;;;;;61.15;37.28;;;;;;;7.07;100.00;146191.75;5064569;28;20132;-72
2024/02/27 05:25:37;;;;;;;57.90;36.72;;;;;;;6.64;100.00;146089.69;5064047;28;20115;-72
2024/02/27 05:28:03;;;;;;;54.30;35.72;;;;;;;6.52;100.00;146121.56;5064484;28;20487;-72
2024/02/27 05:30:30;;;;;;;55.15;36.38;;;;;;;7.20;100.00;146248.13;5066342;28;20707;-71
2024/02/27 05:32:57;;;;;;;58.42;36.22;;;;;;;6.61;100.00;146078.53;5063237;28;20036;-71
2024/02/27 05:35:22;;;;;;;57.90;35.42;;;;;;;6.09;100.00;145950.53;5063442;28;20041;-71
2024/02/27 05:37:49;;;;;;;52.63;34.10;;;;;;;6.58;100.00;146053.22;5065719;28;20028;-74
2024/02/27 05:40:15;;;;;;;58.13;35.67;;;;;;;7.14;100.00;146174.44;5069831;28;20033;-71
2024/02/27 05:42:40;;;;;;;61.40;36.05;;;;;;;7.48;100.00;146192.75;5067860;28;20044;-71
2024/02/27 05:45:06;;;;;;;56.88;36.88;;;;;;;6.54;100.00;146043.38;5069391;28;20515;-69
2024/02/27 05:47:32;;;;;;;57.95;38.05;;;;;;;7.04;100.00;146069.13;5070582;28;20032;-73
2024/02/27 05:49:57;;;;;;;57.13;37.33;;;;;;;6.75;100.00;146051.56;5070168;28;20056;-71
2024/02/27 05:52:22;;;;;;;54.47;34.60;;;;;;;6.48;100.00;145935.22;5070346;28;20465;-71
2024/02/27 05:54:48;;;;;;;50.25;32.15;;;;;;;6.79;100.00;145997.44;5070312;28;20422;-71
2024/02/27 05:57:13;;;;;;;47.53;28.83;;;;;;;7.16;100.00;146120.44;5066406;28;20044;-71
2024/02/27 05:59:39;;;;;;;43.20;28.80;;;;;;;7.03;100.00;146143.50;5073918;28;20055;-74
2024/02/27 06:02:05;;;;;;;46.58;28.77;;;;;;;7.09;100.00;146141.66;5072046;28;20036;-71
2024/02/27 06:04:34;;;;;;;44.60;27.63;;;;;;;7.37;100.00;146146.53;5070676;28;20506;-72
2024/02/27 06:06:59;;;;;;;44.00;26.90;;;;;;;6.99;100.00;146073.41;5052540;28;20032;-70
2024/02/27 06:09:24;;;;;;;39.88;25.90;;;;;;;6.86;100.00;146020.97;5070680;28;20454;-71
2024/02/27 06:11:50;;;;;;;37.20;24.50;;;;;;;6.76;100.00;145973.34;5054401;28;20028;-72
2024/02/27 06:14:15;;;;;;;38.00;24.38;;;;;;;7.48;100.00;146118.44;5070550;28;20111;-71
2024/02/27 06:16:41;;;;;;;38.65;23.75;;;;;;;6.49;100.00;145930.03;5052292;28;20793;-70
2024/02/27 06:19:07;;;;;;;35.28;23.17;;;;;;;7.02;100.00;145966.91;5068831;28;20095;-71
2024/02/27 06:24:17;;;;;;;39.47;22.58;;;;;;;7.01;100.00;146015.69;5069532;28;20439;-71
2024/02/27 06:26:42;;;;;;;35.00;21.25;;;;;;;6.99;100.00;145976.13;5070828;28;20032;-71
2024/02/27 06:29:07;;;;;;;32.90;20.23;;;;;;;7.31;100.00;146029.31;5070242;28;20483;-71
2024/02/27 06:31:33;;;;;;;34.83;21.60;;;;;;;7.64;100.00;146074.53;5070651;28;20048;-71
2024/02/27 06:33:59;;;;;;;32.72;21.15;;;;;;;6.79;100.00;145873.22;5070245;28;20379;-71
2024/02/27 06:36:25;;;;;;;30.73;19.95;;;;;;;6.91;100.00;145893.81;5070539;28;20871;-71
2024/02/27 06:38:53;;;;;;;29.58;18.25;;;;;;;6.93;100.00;145963.94;5059679;28;20115;-70
2024/02/27 06:41:18;;;;;;;28.63;18.98;;;;;;;7.16;100.00;146005.22;5052134;28;20246;-70
2024/02/27 06:43:44;;;;;;;32.33;18.40;;;;;;;6.88;100.00;145872.31;5070210;28;20033;-70
2024/02/27 06:46:09;;;;;;;32.42;19.17;;;;;;;7.39;100.00;146010.53;5051823;28;20562;-74
2024/02/27 06:48:34;;;;;;;28.73;18.25;;;;;;;7.51;100.00;145993.88;5068191;28;20044;-70
2024/02/27 06:51:05;;;;;;;27.38;17.63;;;;;;;7.41;100.00;145983.34;5055764;28;20509;-71
2024/02/27 06:53:31;;;;;;;28.42;17.55;;;;;;;6.87;100.00;145800.72;5070329;28;20059;-71
2024/02/27 06:55:57;;;;;;;26.42;16.65;;;;;;;7.11;100.00;145811.13;5069208;28;20123;-71
2024/02/27 06:58:22;;;;;;;31.33;17.25;;;;;;;6.81;100.00;145828.31;5051037;28;20037;-69
2024/02/27 07:00:47;;;;;;;29.23;16.52;;;;;;;7.00;100.00;145932.50;5068047;28;20024;-69
2024/02/27 07:03:13;;;;;;;34.28;18.23;;;;;;;6.48;100.00;145790.72;5059433;28;20033;-69
2024/02/27 07:05:40;;;;;;;27.30;17.25;;;;;;;6.92;100.00;145943.56;5051452;28;20036;-69
2024/02/27 07:08:06;;;;;;;33.25;18.02;;;;;;;7.17;100.00;145941.09;5068404;28;20043;-70
2024/02/27 07:10:32;;;;;;;28.52;18.10;;;;;;;6.16;100.00;145684.06;5067332;28;20414;-71
2024/02/27 07:12:57;;;;;;;26.70;17.13;;;;;;;6.74;100.00;145816.22;5050969;28;20040;-71
2024/02/27 07:15:23;;;;;;;26.80;17.30;;;;;;;7.21;100.00;145954.69;5069347;28;20029;-70
2024/02/27 07:17:48;;;;;;;25.33;16.42;;;;;;;6.87;100.00;145800.72;5069020;28;20403;-70
2024/02/27 07:20:14;;;;;;;27.98;16.55;;;;;;;6.73;100.00;145831.69;5055517;28;20107;-73
2024/02/27 07:22:39;;;;;;;25.40;17.13;;;;;;;7.01;100.00;145785.25;5069083;28;20028;-73
2024/02/27 07:25:05;;;;;;;26.17;15.70;;;;;;;6.67;100.00;145723.50;5051235;28;20035;-69
2024/02/27 07:27:31;;;;;;;25.85;15.45;;;;;;;7.33;100.00;145872.84;5050996;28;20036;-70
2024/02/27 07:29:56;;;;;;;23.50;15.45;;;;;;;7.05;100.00;145782.28;5061203;28;20024;-69
2024/02/27 07:32:22;;;;;;;23.27;14.68;;;;;;;7.74;100.00;145867.06;5069080;28;20090;-70
2024/02/27 07:34:47;;;;;;;21.42;14.52;;;;;;;7.13;100.00;145828.84;5067809;28;20029;-70
2024/02/27 07:37:15;;;;;;;28.55;15.70;;;;;;;7.77;100.00;145828.31;5068169;28;20033;-70
2024/02/27 07:39:41;;;;;;;23.98;14.95;;;;;;;6.84;100.00;145665.41;5068765;28;20495;-72
2024/02/27 07:42:06;;;;;;;22.55;13.88;;;;;;;7.63;100.00;145713.25;5068939;28;20036;-71
2024/02/27 07:44:32;;;;;;;23.15;14.02;;;;;;;6.82;100.00;145684.84;5069232;28;20432;-73
2024/02/27 07:46:57;;;;;;;22.50;13.63;;;;;;;7.01;100.00;145685.41;5068859;28;20093;-71
2024/02/27 07:49:22;;;;;;;21.70;13.10;;;;;;;7.65;100.00;145805.31;5054933;28;20142;-71
2024/02/27 07:51:48;;;;;;;22.75;13.80;;;;;;;7.05;100.00;145654.28;5068748;28;20040;-71
2024/02/27 07:54:16;;;;;;;21.33;12.75;;;;;;;7.93;100.00;145717.63;5050415;28;20399;-69
2024/02/27 07:56:43;;;;;;;20.80;13.20;;;;;;;6.67;100.00;145559.75;5066851;28;20033;-69
2024/02/27 07:59:09;;;;;;;18.90;12.52;;;;;;;7.65;100.00;145788.59;5069114;28;20056;-70
2024/02/27 08:01:35;;;;;;;22.92;13.98;;;;;;;7.17;100.00;145655.47;5068306;28;20482;-72
2024/02/27 08:04:00;;;;;;;23.15;13.30;;;;;;;7.61;100.00;145778.78;5068304;28;20036;-71
2024/02/27 08:06:27;;;;;;;21.42;12.93;;;;;;;6.70;100.00;145528.72;5067830;28;20032;-69
2024/02/27 08:08:54;;;;;;;22.17;12.98;;;;;;;8.15;100.00;145693.38;5049725;28;20111;-69
2024/02/27 08:11:21;;;;;;;22.88;12.57;;;;;;;7.51;100.00;145637.72;5068372;28;20027;-71
2024/02/27 08:13:47;;;;;;;20.58;12.55;;;;;;;7.93;100.00;145754.84;5066308;28;20106;-70
2024/02/27 08:16:12;;;;;;;22.15;13.35;;;;;;;7.45;100.00;145633.25;5068548;28;20021;-71
2024/02/27 08:18:38;;;;;;;21.42;13.52;;;;;;;7.61;100.00;145641.72;5068554;28;20090;-70
2024/02/27 08:21:04;;;;;;;23.65;13.50;;;;;;;8.26;100.00;145713.91;5066139;28;20044;-71
2024/02/27 08:23:30;;;;;;;22.52;13.55;;;;;;;7.96;100.00;145735.25;5066462;28;20040;-71
2024/02/27 08:25:56;;;;;;;22.20;12.75;;;;;;;8.27;100.00;145701.00;5054731;28;20028;-71
2024/02/27 08:28:22;;;;;;;22.92;13.40;;;;;;;8.55;100.00;145697.75;5068774;28;20027;-70
2024/02/27 08:30:48;;;;;;;20.25;12.07;;;;;;;8.27;100.00;145703.56;5066660;28;20035;-71
2024/02/27 08:33:14;;;;;;;19.85;12.13;;;;;;;8.39;100.00;145702.19;5068320;28;20031;-71
2024/02/27 08:35:39;;;;;;;20.60;12.45;;;;;;;7.85;100.00;145555.69;5068195;28;20033;-72
2024/02/27 08:38:05;;;;;;;25.73;14.55;;;;;;;7.97;100.00;145498.00;5049610;28;20734;-71
2024/02/27 08:40:31;;;;;;;20.90;12.23;;;;;;;7.95;100.00;145604.59;5069524;28;20463;-71
2024/02/27 08:42:57;;;;;;;22.83;12.10;;;;;;;8.44;100.00;145706.72;5073645;28;20025;-71
2024/02/27 08:45:23;;;;;;;23.88;13.32;;;;;;;8.61;100.00;145627.75;5066475;28;20036;-71
2024/02/27 08:47:50;;;;;;;21.65;12.23;;;;;;;8.45;100.00;145731.03;5067007;28;20415;-71
2024/02/27 08:50:16;;;;;;;18.30;11.43;;;;;;;8.77;100.00;145715.81;5050548;28;20041;-70
2024/02/27 08:52:41;;;;;;;25.85;14.48;;;;;;;8.78;100.00;145696.38;5050067;28;20028;-71
2024/02/27 08:55:08;;;;;;;20.15;12.48;;;;;;;7.93;100.00;145553.53;5068010;28;20056;-70
2024/02/27 08:57:33;;;;;;;20.67;11.68;;;;;;;8.63;100.00;145560.78;5068427;28;20163;-70
2024/02/27 09:00:00;;;;;;;23.27;12.18;;;;;;;8.00;100.00;145565.56;5067446;28;20131;-71
2024/02/27 09:02:26;;;;;;;19.80;12.95;;;;;;;8.71;100.00;145693.28;5068145;28;20392;-71
2024/02/27 09:04:52;;;;;;;23.77;13.85;;;;;;;8.81;100.00;145689.69;5067723;28;20062;-71
2024/02/27 09:07:17;;;;;;;18.25;11.48;;;;;;;8.48;100.00;145558.75;5068129;28;20025;-71
2024/02/27 09:09:44;;;;;;;22.10;12.20;;;;;;;8.75;100.00;145735.25;5068337;28;20070;-71
2024/02/27 09:12:09;;;;;;;19.83;11.82;;;;;;;9.03;100.00;145720.47;5066595;28;20480;-70
2024/02/27 09:14:35;;;;;;;21.42;11.52;;;;;;;8.54;100.00;145617.06;5070532;28;20029;-71
2024/02/27 09:17:02;;;;;;;20.55;12.10;;;;;;;8.43;100.00;145561.91;5070611;28;20086;-71
2024/02/27 09:19:27;;;;;;;20.15;12.00;;;;;;;9.33;100.00;145692.34;5053374;28;20052;-71
2024/02/27 09:21:53;;;;;;;20.27;12.10;;;;;;;9.12;100.00;145608.91;5069861;28;20059;-71
2024/02/27 09:24:19;;;;;;;18.40;11.98;;;;;;;9.53;100.00;145736.19;5071586;28;20067;-71
2024/02/27 09:26:44;;;;;;;21.20;11.60;;;;;;;9.12;100.00;145655.13;5071765;28;20056;-70
2024/02/27 09:29:10;;;;;;;16.27;11.07;;;;;;;9.59;100.00;145785.63;5069699;28;20029;-72
2024/02/27 09:31:36;;;;;;;22.15;11.88;;;;;;;9.45;100.00;145804.00;5070379;28;20466;-70
2024/02/27 09:34:01;;;;;;;19.88;11.98;;;;;;;9.57;100.00;145787.13;5052737;28;20115;-71
2024/02/27 09:36:26;;;;;;;17.05;10.55;;;;;;;10.22;100.00;145767.59;5070887;28;20089;-70
2024/02/27 09:38:52;;;;;;;21.92;12.10;;;;;;;10.30;100.00;145770.53;5052488;28;20028;-71
2024/02/27 09:41:59;;;;;;;21.52;11.38;;;;;;;9.68;100.00;145999.34;5053494;28;20033;-71
2024/02/27 09:44:25;;;;;;;17.75;10.75;;;;;;;10.83;100.00;145883.59;5037220;28;20422;-71
2024/02/27 09:46:51;;;;;;;25.77;12.50;;;;;;;10.64;100.00;145816.44;5069350;28;20029;-74
2024/02/27 09:49:19;;;;;;;17.83;10.48;;;;;;;10.53;100.00;145841.03;5069811;28;20035;-71
2024/02/27 09:51:48;;;;;;;17.27;10.77;;;;;;;11.74;100.00;145775.03;5070947;28;20029;-71
2024/02/27 09:54:15;;;;;;;18.50;10.93;;;;;;;11.61;100.00;145857.91;5071029;28;20495;-72
2024/02/27 09:56:41;;;;;;;18.60;10.90;;;;;;;11.99;100.00;145856.78;5069620;28;20461;-71
2024/02/27 09:59:06;;;;;;;17.67;10.50;;;;;;;12.28;100.00;145916.19;5071048;28;20035;-71
2024/02/27 10:01:35;;;;;;;17.27;10.07;;;;;;;12.62;100.00;146018.63;5053076;28;20024;-70
2024/02/27 10:04:02;;;;;;;18.65;10.48;;;;;;;12.02;100.00;146117.13;5070649;28;20032;-70
2024/02/27 10:06:32;;;;;;;17.23;10.35;;;;;;;11.97;100.00;146075.09;5070875;28;20038;-71
2024/02/27 10:09:02;;;;;;;16.57;10.70;;;;;;;12.64;100.00;146275.53;5071164;28;20056;-70
2024/02/27 10:11:28;;;;;;;16.90;9.65;;;;;;;11.87;100.00;146273.91;5069739;28;20487;-70
2024/02/27 10:13:54;;;;;;;15.52;9.63;;;;;;;13.00;100.00;146359.88;5070801;28;20028;-74
2024/02/27 10:16:21;;;;;;;17.67;10.40;;;;;;;12.24;100.00;146386.72;5051485;28;20086;-71
2024/02/27 10:18:46;;;;;;;17.10;10.18;;;;;;;12.35;100.00;146500.19;5069391;28;20032;-72
2024/02/27 10:21:12;;;;;;;14.25;10.15;;;;;;;12.88;100.00;146635.53;5070289;28;20028;-71
2024/02/27 10:23:37;;;;;;;14.98;10.10;;;;;;;13.37;100.00;146767.69;5051926;28;20044;-71
2024/02/27 10:26:10;;;;;;;20.05;10.75;;;;;;;12.91;100.00;146768.38;5068655;28;20419;-70
2024/02/27 10:28:36;;;;;;;16.85;10.05;;;;;;;12.41;100.00;146839.22;5069832;28;20052;-71
2024/02/27 10:31:08;;;;;;;14.98;9.57;;;;;;;12.74;100.00;147039.34;4716348;28;9999639;-70
2024/02/27 10:33:34;;;;;;;14.00;9.10;;;;;;;13.70;100.00;147185.44;5066946;28;20507;-69
2024/02/27 10:35:59;;;;;;;16.52;9.38;;;;;;;13.62;100.00;147177.44;5068660;28;20032;-69
2024/02/27 10:38:27;;;;;;;16.20;9.80;;;;;;;14.02;100.00;147495.00;5067797;28;20093;-74
2024/02/27 10:40:53;;;;;;;15.82;10.20;;;;;;;13.78;100.00;147580.69;5068186;28;20498;-69
2024/02/27 10:43:19;;;;;;;15.73;10.05;;;;;;;14.28;100.00;147753.69;5067740;28;20502;-70
2024/02/27 10:45:47;;;;;;;19.60;10.35;;;;;;;13.60;100.00;147756.31;5067187;28;20089;-71
2024/02/27 10:48:13;;;;;;;14.65;9.38;;;;;;;13.66;100.00;147811.34;5067163;28;20037;-71
2024/02/27 10:50:40;;;;;;;14.32;9.75;;;;;;;13.85;100.00;147945.09;5065836;28;20025;-71
2024/02/27 10:53:06;;;;;;;14.93;10.02;;;;;;;13.80;100.00;148141.28;5066599;28;20036;-71
2024/02/27 10:55:32;;;;;;;17.05;9.05;;;;;;;14.79;100.00;148263.81;5050392;28;20404;-70
2024/02/27 10:57:59;;;;;;;13.88;9.60;;;;;;;14.25;100.00;148293.16;5069854;28;20024;-71
2024/02/27 11:00:28;;;;;;;14.73;9.38;;;;;;;14.12;100.00;148408.66;5069908;28;20032;-71
2024/02/27 11:02:57;;;;;;;13.75;8.65;;;;;;;14.11;100.00;148320.63;5070154;28;20085;-70
2024/02/27 11:05:27;;;;;;;16.42;9.15;;;;;;;14.33;100.00;148568.44;5069972;28;20482;-70